Time;durP1;ratioP1;P1;durP2;ratioP2;P2;SDS_P1;SDS_P2;PMS_P1;PMS_P2;Temp;Humidity;BMP_temperature;BMP_pressure;BME280_temperature;BME280_humidity;BME280_pressure;Samples;Min_cycle;Max_cycle;Signal;HPM_P1;HPM_P2
2022/09/02 00:00:54;;;;;;;23.20;14.13;;;;;;;;;;3357406;42;20575;-63
2022/09/02 00:03:20;;;;;;;24.30;14.38;;;;;;;;;;3366352;42;20096;-62
2022/09/02 00:05:46;;;;;;;24.30;13.50;;;;;;;;;;3364969;42;20087;-62
2022/09/02 00:08:12;;;;;;;23.85;13.55;;;;;;;;;;3366154;42;20092;-62
2022/09/02 00:10:40;;;;;;;25.17;14.18;;;;;;;;;;3366302;42;20147;-63
2022/09/02 00:13:07;;;;;;;26.33;13.52;;;;;;;;;;3365999;42;20091;-63
2022/09/02 00:15:33;;;;;;;24.35;13.57;;;;;;;;;;3364538;42;20091;-63
2022/09/02 00:18:00;;;;;;;22.93;13.40;;;;;;;;;;3364687;42;20099;-63
2022/09/02 00:20:27;;;;;;;25.02;14.07;;;;;;;;;;3364687;42;20598;-63
2022/09/02 00:22:53;;;;;;;23.80;13.40;;;;;;;;;;3366235;42;20127;-62
2022/09/02 00:25:19;;;;;;;23.83;14.02;;;;;;;;;;3366894;42;20115;-63
2022/09/02 00:27:45;;;;;;;24.92;13.60;;;;;;;;;;3364771;42;20162;-62
2022/09/02 00:30:13;;;;;;;27.83;14.10;;;;;;;;;;3365987;42;20092;-63
2022/09/02 00:32:39;;;;;;;26.88;14.88;;;;;;;;;;3365753;42;20076;-62
2022/09/02 00:35:05;;;;;;;25.08;14.32;;;;;;;;;;3371752;42;20589;-62
2022/09/02 00:37:31;;;;;;;27.05;14.77;;;;;;;;;;3364450;42;20130;-64
2022/09/02 00:39:57;;;;;;;26.43;14.93;;;;;;;;;;3365890;42;20144;-62
2022/09/02 00:42:23;;;;;;;33.22;16.75;;;;;;;;;;3366094;42;20092;-62
2022/09/02 00:44:50;;;;;;;30.58;15.77;;;;;;;;;;3365973;42;20087;-62
2022/09/02 00:47:16;;;;;;;33.42;17.10;;;;;;;;;;3356921;42;20083;-62
2022/09/02 00:49:44;;;;;;;35.67;17.08;;;;;;;;;;3366207;42;20083;-62
2022/09/02 00:52:12;;;;;;;33.57;16.90;;;;;;;;;;3364590;42;20649;-61
2022/09/02 00:54:40;;;;;;;36.78;16.95;;;;;;;;;;3365676;42;20084;-63
2022/09/02 00:57:09;;;;;;;34.72;17.80;;;;;;;;;;3364479;42;20102;-63
2022/09/02 00:59:41;;;;;;;30.70;16.83;;;;;;;;;;3364288;42;20677;-64
2022/09/02 01:02:08;;;;;;;33.85;17.17;;;;;;;;;;3366634;42;20107;-62
2022/09/02 01:04:34;;;;;;;32.37;17.30;;;;;;;;;;3366259;42;20159;-63
2022/09/02 01:07:02;;;;;;;35.35;18.02;;;;;;;;;;3364410;42;20110;-61
2022/09/02 01:09:28;;;;;;;36.17;18.75;;;;;;;;;;3364602;42;20566;-62
2022/09/02 01:11:54;;;;;;;33.90;17.67;;;;;;;;;;3366172;42;20115;-62
2022/09/02 01:14:20;;;;;;;31.50;17.13;;;;;;;;;;3358413;42;20118;-62
2022/09/02 01:16:52;;;;;;;29.03;17.07;;;;;;;;;;3367664;42;20139;-61
2022/09/02 01:19:26;;;;;;;31.45;16.20;;;;;;;;;;3366076;42;20146;-62
2022/09/02 01:21:53;;;;;;;31.17;17.67;;;;;;;;;;3366454;42;20099;-62
2022/09/02 01:24:20;;;;;;;34.50;18.00;;;;;;;;;;3367612;42;20474;-62
2022/09/02 01:26:46;;;;;;;31.35;17.75;;;;;;;;;;3367859;42;20092;-61
2022/09/02 01:29:12;;;;;;;34.97;19.30;;;;;;;;;;3365910;42;20570;-63
2022/09/02 01:31:38;;;;;;;33.00;18.63;;;;;;;;;;3367837;42;20550;-62
2022/09/02 01:34:05;;;;;;;33.53;18.63;;;;;;;;;;3367566;42;20131;-63
2022/09/02 01:36:32;;;;;;;35.10;18.92;;;;;;;;;;3366437;42;20139;-62
2022/09/02 01:38:58;;;;;;;33.58;19.27;;;;;;;;;;3367897;42;20116;-62
2022/09/02 01:41:24;;;;;;;34.70;19.77;;;;;;;;;;3366093;42;20175;-62
2022/09/02 01:43:50;;;;;;;35.28;20.35;;;;;;;;;;3367400;42;20091;-64
2022/09/02 01:46:16;;;;;;;36.25;20.63;;;;;;;;;;3367631;42;20690;-63
2022/09/02 01:48:42;;;;;;;37.43;20.30;;;;;;;;;;3367584;42;20505;-64
2022/09/02 01:51:08;;;;;;;37.03;21.58;;;;;;;;;;3366046;42;20096;-63
2022/09/02 01:53:34;;;;;;;39.15;21.75;;;;;;;;;;3366241;42;20095;-63
2022/09/02 01:56:00;;;;;;;37.55;21.30;;;;;;;;;;3367742;42;20095;-65
2022/09/02 01:58:26;;;;;;;36.87;21.10;;;;;;;;;;3367230;42;20141;-63
2022/09/02 02:00:52;;;;;;;38.55;20.42;;;;;;;;;;3367565;42;20102;-63
2022/09/02 02:03:18;;;;;;;40.30;21.48;;;;;;;;;;3367576;42;20608;-62
2022/09/02 02:05:44;;;;;;;35.72;20.70;;;;;;;;;;3365885;42;20087;-63
2022/09/02 02:08:10;;;;;;;38.07;20.87;;;;;;;;;;3367405;42;20088;-62
2022/09/02 02:10:36;;;;;;;34.78;21.02;;;;;;;;;;3365859;42;20104;-62
2022/09/02 02:13:02;;;;;;;35.95;20.08;;;;;;;;;;3365672;42;20091;-63
2022/09/02 02:15:28;;;;;;;39.22;21.17;;;;;;;;;;3367169;42;20091;-64
2022/09/02 02:17:54;;;;;;;35.47;21.07;;;;;;;;;;3365865;42;20102;-63
2022/09/02 02:20:20;;;;;;;37.28;19.88;;;;;;;;;;3367263;42;20571;-64
2022/09/02 02:22:46;;;;;;;36.58;20.95;;;;;;;;;;3367254;42;20096;-62
2022/09/02 02:25:13;;;;;;;38.75;21.08;;;;;;;;;;3365453;42;20581;-64
2022/09/02 02:27:40;;;;;;;38.07;20.97;;;;;;;;;;3365603;42;20098;-62
2022/09/02 02:30:07;;;;;;;38.28;20.83;;;;;;;;;;3367130;42;20103;-63
2022/09/02 02:32:33;;;;;;;36.97;21.17;;;;;;;;;;3371582;42;20506;-64
2022/09/02 02:34:59;;;;;;;36.55;19.88;;;;;;;;;;3362773;42;20182;-62
2022/09/02 02:37:25;;;;;;;36.80;20.95;;;;;;;;;;3365171;42;20104;-61
2022/09/02 02:39:51;;;;;;;35.07;20.10;;;;;;;;;;3366842;42;20113;-62
2022/09/02 02:42:17;;;;;;;35.55;19.83;;;;;;;;;;3366978;42;20095;-60
2022/09/02 02:44:43;;;;;;;36.50;20.25;;;;;;;;;;3364941;42;20144;-62
2022/09/02 02:47:09;;;;;;;38.15;20.58;;;;;;;;;;3366852;42;20548;-62
2022/09/02 02:49:39;;;;;;;34.07;20.30;;;;;;;;;;3366642;42;20159;-61
2022/09/02 02:52:05;;;;;;;35.85;20.33;;;;;;;;;;3365254;42;20589;-62
2022/09/02 02:54:31;;;;;;;37.47;21.27;;;;;;;;;;3368033;42;20122;-63
2022/09/02 02:56:57;;;;;;;35.40;20.52;;;;;;;;;;3366732;42;20079;-62
2022/09/02 02:59:24;;;;;;;37.50;20.73;;;;;;;;;;3366257;42;20099;-62
2022/09/02 03:01:50;;;;;;;34.67;19.73;;;;;;;;;;3366512;42;20110;-62
2022/09/02 03:04:16;;;;;;;35.92;19.88;;;;;;;;;;3364955;42;20080;-63
2022/09/02 03:06:42;;;;;;;35.30;19.25;;;;;;;;;;3366598;42;20210;-64
2022/09/02 03:09:08;;;;;;;36.67;19.20;;;;;;;;;;3364569;42;20558;-62
2022/09/02 03:11:34;;;;;;;34.15;19.20;;;;;;;;;;3365038;42;20088;-62
2022/09/02 03:14:00;;;;;;;34.13;19.15;;;;;;;;;;3365009;42;20087;-65
2022/09/02 03:16:26;;;;;;;36.83;21.20;;;;;;;;;;3365152;42;20080;-63
2022/09/02 03:18:52;;;;;;;32.37;18.03;;;;;;;;;;3365089;42;20156;-63
2022/09/02 03:21:18;;;;;;;32.35;18.25;;;;;;;;;;3365073;42;20104;-64
2022/09/02 03:23:44;;;;;;;31.75;17.83;;;;;;;;;;3365139;42;20601;-64
2022/09/02 03:26:16;;;;;;;32.80;17.83;;;;;;;;;;3366313;42;20578;-64
2022/09/02 03:28:41;;;;;;;33.20;17.75;;;;;;;;;;3366203;42;20091;-63
2022/09/02 03:31:11;;;;;;;31.77;16.87;;;;;;;;;;3366333;42;20202;-64
2022/09/02 03:33:38;;;;;;;32.85;17.98;;;;;;;;;;3357980;42;20555;-64
2022/09/02 03:36:04;;;;;;;31.50;16.60;;;;;;;;;;3366539;42;20629;-64
2022/09/02 03:38:30;;;;;;;31.90;17.10;;;;;;;;;;3366206;42;20590;-62
2022/09/02 03:40:56;;;;;;;32.83;17.03;;;;;;;;;;3365318;42;20092;-61
2022/09/02 03:43:22;;;;;;;32.95;16.88;;;;;;;;;;3364198;42;20479;-62
2022/09/02 03:45:47;;;;;;;32.38;16.75;;;;;;;;;;3363647;42;20079;-63
2022/09/02 03:48:14;;;;;;;33.25;17.02;;;;;;;;;;3360926;42;20599;-62
2022/09/02 03:50:42;;;;;;;32.88;18.52;;;;;;;;;;3360773;42;20538;-63
2022/09/02 03:53:08;;;;;;;33.87;17.33;;;;;;;;;;3363144;42;20106;-62
2022/09/02 03:55:35;;;;;;;34.22;17.95;;;;;;;;;;3364730;42;20084;-62
2022/09/02 03:58:01;;;;;;;34.08;19.17;;;;;;;;;;3359365;42;20116;-63
2022/09/02 04:00:32;;;;;;;35.97;18.73;;;;;;;;;;3365790;42;20095;-63
2022/09/02 04:03:00;;;;;;;40.47;19.83;;;;;;;;;;3366235;42;20695;-62
2022/09/02 04:05:26;;;;;;;39.22;20.20;;;;;;;;;;3364373;42;20549;-63
2022/09/02 04:07:52;;;;;;;35.80;19.70;;;;;;;;;;3366998;42;20096;-62
2022/09/02 04:10:19;;;;;;;38.60;21.13;;;;;;;;;;3365700;42;20080;-63
2022/09/02 04:12:45;;;;;;;36.80;19.80;;;;;;;;;;3366107;42;20157;-62
2022/09/02 04:15:12;;;;;;;35.73;21.13;;;;;;;;;;3364393;42;20620;-62
2022/09/02 04:17:39;;;;;;;33.65;18.88;;;;;;;;;;3366015;42;20091;-62
2022/09/02 04:20:06;;;;;;;32.50;19.35;;;;;;;;;;3366037;42;20169;-62
2022/09/02 04:22:32;;;;;;;35.28;18.58;;;;;;;;;;3365873;42;20106;-62
2022/09/02 04:24:58;;;;;;;33.13;17.75;;;;;;;;;;3365847;42;20435;-63
2022/09/02 04:27:24;;;;;;;29.73;16.47;;;;;;;;;;3365881;42;20218;-62
2022/09/02 04:29:50;;;;;;;34.40;17.90;;;;;;;;;;3364458;42;20099;-62
2022/09/02 04:32:16;;;;;;;33.70;16.17;;;;;;;;;;3365763;42;20100;-64
2022/09/02 04:34:42;;;;;;;29.67;16.47;;;;;;;;;;3365868;42;20161;-62
2022/09/02 04:37:08;;;;;;;33.85;17.95;;;;;;;;;;3365975;42;20088;-61
2022/09/02 04:39:34;;;;;;;36.67;18.23;;;;;;;;;;3365210;42;20092;-61
2022/09/02 04:42:00;;;;;;;36.92;18.60;;;;;;;;;;3365733;42;20115;-63
2022/09/02 04:44:26;;;;;;;42.13;19.37;;;;;;;;;;3365464;42;20251;-61
2022/09/02 04:46:51;;;;;;;36.33;20.33;;;;;;;;;;3365582;42;20096;-60
2022/09/02 04:49:17;;;;;;;39.38;20.20;;;;;;;;;;3365397;42;20558;-63
2022/09/02 04:51:43;;;;;;;46.23;21.27;;;;;;;;;;3364420;42;20555;-63
2022/09/02 04:54:09;;;;;;;43.88;20.98;;;;;;;;;;3365755;42;20106;-62
2022/09/02 04:56:37;;;;;;;43.45;22.27;;;;;;;;;;3359293;42;20087;-64
2022/09/02 04:59:03;;;;;;;41.33;21.48;;;;;;;;;;3359962;42;20152;-63
2022/09/02 05:01:31;;;;;;;49.30;22.42;;;;;;;;;;3364010;42;20084;-63
2022/09/02 05:03:58;;;;;;;44.90;22.57;;;;;;;;;;3363629;42;20139;-64
2022/09/02 05:06:26;;;;;;;47.40;22.35;;;;;;;;;;3357068;42;20087;-62
2022/09/02 05:08:55;;;;;;;46.28;22.67;;;;;;;;;;3365715;42;20648;-62
2022/09/02 05:11:22;;;;;;;45.17;23.30;;;;;;;;;;3364327;42;20163;-63
2022/09/02 05:13:52;;;;;;;46.13;24.50;;;;;;;;;;3357116;42;20138;-63
2022/09/02 05:16:22;;;;;;;47.03;26.07;;;;;;;;;;3364469;42;20096;-63
2022/09/02 05:18:49;;;;;;;43.53;24.17;;;;;;;;;;3356836;42;20656;-71
2022/09/02 05:21:15;;;;;;;43.50;24.23;;;;;;;;;;3364304;42;20099;-64
2022/09/02 05:23:41;;;;;;;44.53;23.17;;;;;;;;;;3363950;42;20180;-65
2022/09/02 05:26:07;;;;;;;43.92;23.17;;;;;;;;;;3363740;42;20095;-61
2022/09/02 05:28:33;;;;;;;44.93;22.70;;;;;;;;;;3364348;42;20722;-62
2022/09/02 05:31:09;;;;;;;43.10;24.30;;;;;;;;;;3365484;42;20100;-63
2022/09/02 05:33:39;;;;;;;46.08;22.98;;;;;;;;;;3365395;42;20103;-62
2022/09/02 05:36:11;;;;;;;45.90;22.13;;;;;;;;;;3364123;42;20527;-61
2022/09/02 05:38:38;;;;;;;40.20;22.70;;;;;;;;;;3363885;42;20107;-63
2022/09/02 05:41:08;;;;;;;40.60;22.45;;;;;;;;;;3365046;42;20148;-62
2022/09/02 05:43:36;;;;;;;39.95;19.80;;;;;;;;;;3365288;42;20134;-62
2022/09/02 05:46:06;;;;;;;36.17;19.60;;;;;;;;;;3365301;42;20175;-61
2022/09/02 05:51:18;;;;;;;33.00;18.13;;;;;;;;;;3364865;42;20138;-61
2022/09/02 05:53:44;;;;;;;35.97;19.92;;;;;;;;;;3364878;42;20087;-63
2022/09/02 05:56:10;;;;;;;35.20;19.65;;;;;;;;;;3365031;42;20513;-63
2022/09/02 05:58:36;;;;;;;31.60;17.02;;;;;;;;;;3365235;42;20095;-64
2022/09/02 06:01:13;;;;;;;32.50;18.47;;;;;;;;;;3367030;42;20087;-62
2022/09/02 06:03:39;;;;;;;34.10;18.25;;;;;;;;;;3366779;42;20088;-61
2022/09/02 06:06:05;;;;;;;36.70;18.70;;;;;;;;;;3367217;42;20542;-62
2022/09/02 06:08:31;;;;;;;31.85;17.58;;;;;;;;;;3365650;42;20122;-62
2022/09/02 06:10:59;;;;;;;30.48;17.13;;;;;;;;;;3365413;42;20087;-62
2022/09/02 06:13:27;;;;;;;32.53;17.60;;;;;;;;;;3362138;42;20097;-63
2022/09/02 06:15:53;;;;;;;26.27;15.77;;;;;;;;;;3360819;42;20104;-61
2022/09/02 06:18:19;;;;;;;28.38;15.38;;;;;;;;;;3365103;42;20190;-63
2022/09/02 06:20:46;;;;;;;25.30;14.30;;;;;;;;;;3360782;42;20143;-64
2022/09/02 06:23:13;;;;;;;26.35;15.05;;;;;;;;;;3351436;42;20096;-62
2022/09/02 06:25:39;;;;;;;25.90;15.17;;;;;;;;;;3363949;42;20590;-63
2022/09/02 06:28:05;;;;;;;27.60;13.90;;;;;;;;;;3357106;42;20088;-63
2022/09/02 06:30:32;;;;;;;25.20;13.63;;;;;;;;;;3362626;42;20131;-63
2022/09/02 06:32:58;;;;;;;28.90;15.55;;;;;;;;;;3363140;42;20143;-62
2022/09/02 06:35:24;;;;;;;28.63;15.50;;;;;;;;;;3361915;42;20170;-62
2022/09/02 06:37:50;;;;;;;30.35;16.60;;;;;;;;;;3363163;42;20505;-63
2022/09/02 06:40:17;;;;;;;31.20;16.95;;;;;;;;;;3358159;42;20172;-63
2022/09/02 06:42:43;;;;;;;27.17;16.30;;;;;;;;;;3361236;42;20115;-64
2022/09/02 06:45:09;;;;;;;34.03;19.65;;;;;;;;;;3359919;42;20084;-65
2022/09/02 06:47:35;;;;;;;39.50;20.90;;;;;;;;;;3365332;42;20151;-64
2022/09/02 06:50:01;;;;;;;37.30;21.80;;;;;;;;;;3363037;42;20096;-62
2022/09/02 06:52:27;;;;;;;38.67;22.13;;;;;;;;;;3362223;42;20583;-62
2022/09/02 06:54:54;;;;;;;39.70;23.00;;;;;;;;;;3360996;42;20175;-64
2022/09/02 06:57:20;;;;;;;40.60;22.67;;;;;;;;;;3363985;42;20084;-63
2022/09/02 06:59:46;;;;;;;35.30;20.60;;;;;;;;;;3357706;42;20119;-63
2022/09/02 07:02:12;;;;;;;43.15;22.42;;;;;;;;;;3363255;42;20168;-62
2022/09/02 07:07:24;;;;;;;36.17;22.98;;;;;;;;;;3366765;42;20100;-62
2022/09/02 07:09:50;;;;;;;39.70;20.87;;;;;;;;;;3366019;42;20091;-66
2022/09/02 07:12:16;;;;;;;38.77;21.50;;;;;;;;;;3365985;42;20307;-64
2022/09/02 07:14:42;;;;;;;43.35;21.83;;;;;;;;;;3366642;42;20136;-63
2022/09/02 07:17:09;;;;;;;37.70;21.58;;;;;;;;;;3365044;42;20661;-64
2022/09/02 07:19:36;;;;;;;37.60;21.48;;;;;;;;;;3366561;42;20127;-63
2022/09/02 07:22:04;;;;;;;34.28;21.15;;;;;;;;;;3365533;42;20107;-63
2022/09/02 07:24:29;;;;;;;28.17;16.67;;;;;;;;;;3359921;42;20136;-63
2022/09/02 07:26:55;;;;;;;25.02;14.50;;;;;;;;;;3365371;42;20161;-64
2022/09/02 07:29:22;;;;;;;28.25;16.08;;;;;;;;;;3366635;42;20154;-65
2022/09/02 07:31:48;;;;;;;26.00;14.82;;;;;;;;;;3366653;42;20542;-63
2022/09/02 07:34:14;;;;;;;31.80;18.33;;;;;;;;;;3365441;42;20103;-62
2022/09/02 07:36:40;;;;;;;30.83;18.40;;;;;;;;;;3366485;42;20126;-62
2022/09/02 07:39:07;;;;;;;35.42;21.13;;;;;;;;;;3366315;42;20114;-63
2022/09/02 07:41:34;;;;;;;36.95;21.88;;;;;;;;;;3364898;42;20114;-62
2022/09/02 07:44:00;;;;;;;37.55;21.63;;;;;;;;;;3366348;42;20098;-63
2022/09/02 07:46:28;;;;;;;36.53;22.37;;;;;;;;;;3366725;42;20080;-63
2022/09/02 07:48:54;;;;;;;39.78;23.75;;;;;;;;;;3364837;42;20182;-62
2022/09/02 07:51:20;;;;;;;39.30;21.73;;;;;;;;;;3365470;42;20080;-63
2022/09/02 07:53:46;;;;;;;38.85;23.05;;;;;;;;;;3365981;42;20099;-63
2022/09/02 07:56:13;;;;;;;39.13;22.17;;;;;;;;;;3364541;42;20106;-62
2022/09/02 07:58:42;;;;;;;42.35;21.85;;;;;;;;;;3364685;42;20561;-62
2022/09/02 08:01:08;;;;;;;41.45;24.42;;;;;;;;;;3366488;42;20149;-64
2022/09/02 08:03:35;;;;;;;40.35;24.17;;;;;;;;;;3364883;42;20644;-63
2022/09/02 08:06:02;;;;;;;36.47;22.98;;;;;;;;;;3357563;42;20119;-61
2022/09/02 08:08:28;;;;;;;39.17;23.33;;;;;;;;;;3364717;42;20154;-64
2022/09/02 08:10:54;;;;;;;42.00;23.58;;;;;;;;;;3366393;42;20096;-66
2022/09/02 08:13:20;;;;;;;41.33;24.02;;;;;;;;;;3364492;42;20111;-62
2022/09/02 08:15:47;;;;;;;44.42;26.20;;;;;;;;;;3364730;42;20096;-62
2022/09/02 08:18:13;;;;;;;40.63;24.00;;;;;;;;;;3365758;42;20095;-63
2022/09/02 08:20:39;;;;;;;35.17;20.33;;;;;;;;;;3365791;42;20566;-62
2022/09/02 08:23:05;;;;;;;29.20;17.95;;;;;;;;;;3365526;42;20151;-62
2022/09/02 08:25:32;;;;;;;33.42;18.48;;;;;;;;;;3363764;42;20096;-62
2022/09/02 08:27:58;;;;;;;31.20;18.10;;;;;;;;;;3365544;42;20108;-62
2022/09/02 08:30:24;;;;;;;30.07;16.80;;;;;;;;;;3364347;42;20095;-64
2022/09/02 08:32:50;;;;;;;36.25;19.13;;;;;;;;;;3364842;42;20620;-62
2022/09/02 08:35:16;;;;;;;34.15;20.15;;;;;;;;;;3365354;42;20679;-63
2022/09/02 08:37:42;;;;;;;37.35;18.63;;;;;;;;;;3361338;42;20461;-63
2022/09/02 08:40:14;;;;;;;25.23;13.63;;;;;;;;;;3360219;42;20554;-62
2022/09/02 08:42:58;;;;;;;26.23;14.73;;;;;;;;;;3360517;42;20116;-64
2022/09/02 08:45:27;;;;;;;25.15;13.93;;;;;;;;;;3360720;42;20108;-63
2022/09/02 08:48:20;;;;;;;25.60;13.90;;;;;;;;;;3361756;42;20091;-62
2022/09/02 08:50:48;;;;;;;24.25;13.30;;;;;;;;;;3357703;42;20627;-62
2022/09/02 08:53:18;;;;;;;27.90;13.70;;;;;;;;;;3359507;42;20528;-62
2022/09/02 08:55:53;;;;;;;25.10;13.10;;;;;;;;;;3359962;42;20573;-62
2022/09/02 08:58:21;;;;;;;27.63;14.80;;;;;;;;;;3370269;42;20100;-63
2022/09/02 09:01:35;;;;;;;28.20;14.75;;;;;;;;;;3364385;42;20178;-63
2022/09/02 09:04:06;;;;;;;29.27;16.73;;;;;;;;;;3328168;42;20295;-66
2022/09/02 09:06:46;;;;;;;28.67;15.73;;;;;;;;;;3357338;42;20143;-63
2022/09/02 09:09:21;;;;;;;29.88;16.80;;;;;;;;;;3362708;42;20289;-62
2022/09/02 09:12:02;;;;;;;30.00;16.70;;;;;;;;;;3360125;42;20099;-63
2022/09/02 09:14:50;;;;;;;28.10;16.75;;;;;;;;;;3361126;42;20092;-64
2022/09/02 09:17:31;;;;;;;30.35;17.27;;;;;;;;;;3362009;42;20139;-63
2022/09/02 09:19:59;;;;;;;31.90;17.50;;;;;;;;;;3353409;42;20191;-63
2022/09/02 09:22:36;;;;;;;35.15;19.13;;;;;;;;;;3360209;42;20573;-64
2022/09/02 09:25:10;;;;;;;32.83;19.23;;;;;;;;;;3361414;42;20150;-62
2022/09/02 09:27:36;;;;;;;33.97;20.15;;;;;;;;;;3352416;42;20092;-63
2022/09/02 09:30:05;;;;;;;33.85;19.20;;;;;;;;;;3358925;42;20096;-63
2022/09/02 09:32:58;;;;;;;38.10;20.63;;;;;;;;;;3358866;42;20147;-64
2022/09/02 09:35:25;;;;;;;35.80;19.65;;;;;;;;;;3353843;42;20140;-63
2022/09/02 09:37:54;;;;;;;35.90;19.92;;;;;;;;;;3364238;42;20088;-63
2022/09/02 09:40:20;;;;;;;36.53;20.50;;;;;;;;;;3368698;42;20561;-64
2022/09/02 09:43:12;;;;;;;36.15;19.58;;;;;;;;;;3362154;42;20084;-62
2022/09/02 09:45:44;;;;;;;33.63;19.63;;;;;;;;;;3361387;42;20095;-63
2022/09/02 09:48:28;;;;;;;37.38;20.83;;;;;;;;;;3360731;42;20130;-65
2022/09/02 09:50:54;;;;;;;39.38;21.42;;;;;;;;;;3360389;42;20076;-63
2022/09/02 09:53:24;;;;;;;33.13;18.90;;;;;;;;;;3360206;42;20080;-62
2022/09/02 09:55:54;;;;;;;33.87;18.73;;;;;;;;;;3365707;42;20091;-63
2022/09/02 09:58:22;;;;;;;32.67;18.35;;;;;;;;;;3364103;42;20505;-63
2022/09/02 10:00:48;;;;;;;33.00;18.35;;;;;;;;;;3365259;42;20076;-63
2022/09/02 10:03:22;;;;;;;31.02;17.02;;;;;;;;;;3358338;42;20179;-62
2022/09/02 10:05:48;;;;;;;31.20;17.77;;;;;;;;;;3364969;42;20096;-63
2022/09/02 10:08:15;;;;;;;32.53;18.90;;;;;;;;;;3357635;42;20145;-63
2022/09/02 10:11:01;;;;;;;34.10;18.90;;;;;;;;;;3366712;42;20629;-63
2022/09/02 10:13:31;;;;;;;31.45;17.92;;;;;;;;;;3361382;42;20102;-64
2022/09/02 10:16:28;;;;;;;32.30;17.95;;;;;;;;;;3365653;42;20115;-64
2022/09/02 10:18:58;;;;;;;34.75;19.02;;;;;;;;;;3371272;42;20557;-63
2022/09/02 10:21:58;;;;;;;36.57;20.00;;;;;;;;;;3356128;42;20076;-63
2022/09/02 10:25:01;;;;;;;32.35;18.60;;;;;;;;;;3366261;42;20092;-63
2022/09/02 10:27:57;;;;;;;34.03;19.80;;;;;;;;;;3366808;42;20111;-63
2022/09/02 10:30:24;;;;;;;36.72;20.60;;;;;;;;;;3363432;42;20096;-63
2022/09/02 10:33:27;;;;;;;33.45;20.95;;;;;;;;;;3365199;42;20079;-64
2022/09/02 10:36:03;;;;;;;33.90;19.27;;;;;;;;;;3360515;42;20099;-63
2022/09/02 10:38:40;;;;;;;34.88;20.80;;;;;;;;;;3365150;42;20190;-64
2022/09/02 10:41:24;;;;;;;36.15;20.50;;;;;;;;;;3365021;42;20096;-63
2022/09/02 10:43:59;;;;;;;36.90;21.38;;;;;;;;;;3366430;42;20108;-64
2022/09/02 10:46:25;;;;;;;33.45;21.40;;;;;;;;;;3367422;42;20102;-64
2022/09/02 10:48:55;;;;;;;40.67;22.27;;;;;;;;;;3363080;42;20475;-63
2022/09/02 10:52:00;;;;;;;36.47;22.98;;;;;;;;;;3363045;42;20139;-63
2022/09/02 10:54:38;;;;;;;38.53;22.58;;;;;;;;;;3363239;42;20139;-63
2022/09/02 10:57:10;;;;;;;37.60;21.98;;;;;;;;;;3366298;42;20092;-63
2022/09/02 10:59:36;;;;;;;40.22;22.02;;;;;;;;;;3364530;42;20193;-63
2022/09/02 11:02:11;;;;;;;37.53;22.03;;;;;;;;;;3366125;42;20084;-63
2022/09/02 11:04:47;;;;;;;40.30;24.58;;;;;;;;;;3365844;42;20110;-63
2022/09/02 11:07:20;;;;;;;36.58;21.80;;;;;;;;;;3365700;42;20154;-63
2022/09/02 11:09:53;;;;;;;36.80;22.00;;;;;;;;;;3359196;42;20099;-62
2022/09/02 11:12:34;;;;;;;37.58;22.23;;;;;;;;;;3364697;42;20135;-63
2022/09/02 11:15:06;;;;;;;38.80;21.97;;;;;;;;;;3364319;42;20112;-63
2022/09/02 11:17:52;;;;;;;40.25;23.92;;;;;;;;;;3365494;42;20157;-62
2022/09/02 11:20:22;;;;;;;39.42;22.95;;;;;;;;;;3366706;42;20169;-64
2022/09/02 11:23:28;;;;;;;40.28;22.80;;;;;;;;;;3365777;42;20166;-63
2022/09/02 11:26:00;;;;;;;36.65;21.20;;;;;;;;;;3364605;42;20158;-63
2022/09/02 11:28:37;;;;;;;37.07;21.90;;;;;;;;;;3365616;42;20087;-63
2022/09/02 11:31:30;;;;;;;40.85;22.40;;;;;;;;;;3363452;42;20095;-63
2022/09/02 11:34:10;;;;;;;37.38;22.33;;;;;;;;;;3361962;42;20139;-63
2022/09/02 11:36:39;;;;;;;37.40;20.70;;;;;;;;;;3361798;42;20091;-62
2022/09/02 11:39:19;;;;;;;38.80;21.30;;;;;;;;;;3364120;42;20186;-64
2022/09/02 11:42:06;;;;;;;36.17;21.00;;;;;;;;;;3364172;42;20170;-62
2022/09/02 11:44:59;;;;;;;38.53;21.30;;;;;;;;;;3365990;42;20100;-63
2022/09/02 11:47:28;;;;;;;33.83;20.35;;;;;;;;;;3366380;42;20088;-63
2022/09/02 11:50:39;;;;;;;34.30;19.40;;;;;;;;;;3366541;42;20178;-63
2022/09/02 11:53:11;;;;;;;35.03;19.30;;;;;;;;;;3366448;42;20095;-63
2022/09/02 11:55:42;;;;;;;35.83;20.57;;;;;;;;;;3366260;42;20262;-62
2022/09/02 11:58:08;;;;;;;31.83;19.48;;;;;;;;;;3357321;42;20110;-64
2022/09/02 12:00:35;;;;;;;31.67;19.17;;;;;;;;;;3357597;42;20191;-63
2022/09/02 12:03:12;;;;;;;33.55;19.60;;;;;;;;;;3364840;42;20139;-63
2022/09/02 12:05:38;;;;;;;34.22;19.77;;;;;;;;;;3358170;42;20096;-63
2022/09/02 12:08:11;;;;;;;37.77;19.90;;;;;;;;;;3366742;42;20119;-63
2022/09/02 12:10:43;;;;;;;35.00;21.48;;;;;;;;;;3365468;42;20141;-62
2022/09/02 12:13:30;;;;;;;33.92;20.52;;;;;;;;;;3358563;42;20104;-65
2022/09/02 12:16:28;;;;;;;32.25;18.35;;;;;;;;;;3359495;42;20630;-65
2022/09/02 12:18:54;;;;;;;32.70;20.17;;;;;;;;;;3346389;42;20597;-64
2022/09/02 12:21:21;;;;;;;32.80;19.40;;;;;;;;;;3365782;42;20099;-66
2022/09/02 12:23:53;;;;;;;34.15;20.50;;;;;;;;;;3363950;42;20509;-63
2022/09/02 12:26:22;;;;;;;35.90;20.20;;;;;;;;;;3366255;42;20151;-63
2022/09/02 12:28:49;;;;;;;34.38;19.77;;;;;;;;;;3360634;42;20092;-63
2022/09/02 12:31:27;;;;;;;33.38;19.60;;;;;;;;;;3365646;42;20573;-64
2022/09/02 12:33:53;;;;;;;34.97;20.50;;;;;;;;;;3363467;42;20604;-63
2022/09/02 12:36:44;;;;;;;32.28;19.55;;;;;;;;;;3365521;42;20134;-64
2022/09/02 12:39:22;;;;;;;32.15;19.00;;;;;;;;;;3363036;42;20689;-62
2022/09/02 12:42:00;;;;;;;31.50;18.48;;;;;;;;;;3366490;42;20107;-64
2022/09/02 12:44:28;;;;;;;31.30;18.60;;;;;;;;;;3365131;42;20233;-64
2022/09/02 12:47:10;;;;;;;31.63;18.03;;;;;;;;;;3364462;42;20098;-65
2022/09/02 12:49:52;;;;;;;29.98;18.10;;;;;;;;;;3360256;42;20183;-64
2022/09/02 12:52:33;;;;;;;30.92;17.83;;;;;;;;;;3362550;42;20102;-64
2022/09/02 12:55:23;;;;;;;32.55;19.63;;;;;;;;;;3363107;42;20571;-64
2022/09/02 12:57:50;;;;;;;31.58;18.40;;;;;;;;;;3362796;42;20608;-64
2022/09/02 13:00:29;;;;;;;32.30;18.60;;;;;;;;;;3361189;42;20513;-64
2022/09/02 13:03:30;;;;;;;30.67;18.83;;;;;;;;;;3361244;42;20083;-63
2022/09/02 13:06:18;;;;;;;33.05;19.08;;;;;;;;;;3361030;42;20091;-64
2022/09/02 13:08:47;;;;;;;28.42;15.93;;;;;;;;;;3365208;42;20567;-64
2022/09/02 13:11:35;;;;;;;25.70;14.80;;;;;;;;;;3366808;42;20127;-63
2022/09/02 13:14:20;;;;;;;27.90;15.53;;;;;;;;;;3360839;42;20506;-64
2022/09/02 13:17:11;;;;;;;30.38;16.42;;;;;;;;;;3364783;42;20096;-63
2022/09/02 13:20:07;;;;;;;28.08;15.63;;;;;;;;;;3364244;42;20110;-65
2022/09/02 13:22:43;;;;;;;25.13;14.50;;;;;;;;;;3364221;42;20190;-66
2022/09/02 13:25:25;;;;;;;26.10;14.43;;;;;;;;;;3359395;42;20102;-66
2022/09/02 13:28:00;;;;;;;26.17;14.27;;;;;;;;;;3359852;42;20088;-65
2022/09/02 13:30:40;;;;;;;25.58;14.18;;;;;;;;;;3358238;42;20095;-64
2022/09/02 13:33:07;;;;;;;25.63;13.93;;;;;;;;;;3358010;42;20670;-63
2022/09/02 13:35:36;;;;;;;25.15;13.25;;;;;;;;;;3367134;42;20498;-63
2022/09/02 13:38:02;;;;;;;24.13;13.63;;;;;;;;;;3362806;42;20107;-63
2022/09/02 13:40:33;;;;;;;21.57;12.63;;;;;;;;;;3357162;42;20570;-63
2022/09/02 13:43:01;;;;;;;26.13;13.32;;;;;;;;;;3356595;42;20154;-64
2022/09/02 13:45:28;;;;;;;23.25;13.68;;;;;;;;;;3364786;42;20095;-65
2022/09/02 13:47:56;;;;;;;25.17;12.82;;;;;;;;;;3364264;42;20213;-63
2022/09/02 13:50:24;;;;;;;20.92;12.23;;;;;;;;;;3365289;42;20096;-63
2022/09/02 13:53:12;;;;;;;23.30;13.33;;;;;;;;;;3354730;42;20096;-66
2022/09/02 13:55:41;;;;;;;25.92;12.73;;;;;;;;;;3362136;42;20091;-64
2022/09/02 13:58:07;;;;;;;24.73;13.10;;;;;;;;;;3352751;42;20106;-63
2022/09/02 14:00:36;;;;;;;24.48;13.45;;;;;;;;;;3364082;42;20111;-64
2022/09/02 14:03:13;;;;;;;25.60;13.77;;;;;;;;;;3365615;42;20100;-63
2022/09/02 14:05:40;;;;;;;24.43;13.13;;;;;;;;;;3364812;42;20169;-63
2022/09/02 14:08:07;;;;;;;23.38;13.32;;;;;;;;;;3356048;42;20092;-65
2022/09/02 14:10:33;;;;;;;22.48;12.55;;;;;;;;;;3363766;42;20516;-63
2022/09/02 14:13:03;;;;;;;23.15;12.95;;;;;;;;;;3363615;42;20134;-64
2022/09/02 14:15:31;;;;;;;23.15;12.02;;;;;;;;;;3356152;42;20080;-65
2022/09/02 14:18:10;;;;;;;23.07;12.70;;;;;;;;;;3363848;42;20106;-63
2022/09/02 14:20:53;;;;;;;22.13;12.07;;;;;;;;;;3361612;42;20558;-65
2022/09/02 14:23:19;;;;;;;23.33;12.10;;;;;;;;;;3364844;42;20079;-65
2022/09/02 14:25:50;;;;;;;22.20;11.38;;;;;;;;;;3366442;42;20135;-65
2022/09/02 14:28:30;;;;;;;22.67;12.13;;;;;;;;;;3365405;42;20103;-64
2022/09/02 14:31:00;;;;;;;23.17;12.30;;;;;;;;;;3358529;42;20079;-64
2022/09/02 14:33:35;;;;;;;23.38;11.77;;;;;;;;;;3366272;42;20084;-65
2022/09/02 14:36:03;;;;;;;20.08;10.85;;;;;;;;;;3360475;42;20095;-64
2022/09/02 14:38:57;;;;;;;24.88;11.45;;;;;;;;;;3366215;42;20139;-65
2022/09/02 14:41:27;;;;;;;19.30;10.52;;;;;;;;;;3359053;42;20134;-66